Terminal Aerodrome Forecast
Issued by NWS Corpus Christi, TX

Home | Current Version | Previous Version | Text Only | Print | Product List | Glossary On
Versions: 1 2 3 4 5 6 7 8 9 10 11 12 13 14 15 16 17 18 19 20 21 22
000
FTUS44 KCRP 282338
TAFCRP
TAF
KCRP 282338Z 2900/2924 14016G24KT P6SM BKN025
      TEMPO 2900/2902 SCT025 BKN250
     FM290300 14011KT P6SM BKN015 OVC025
     FM291600 14013KT P6SM SCT025 BKN120
     FM291900 13016G24KT P6SM SCT040 BKN250=

USA.gov is the U.S. government's official web portal to all federal, state and local government web resources and services.